Time;durP1;ratioP1;P1;durP2;ratioP2;P2;SDS_P1;SDS_P2;PMS_P1;PMS_P2;Temp;Humidity;BMP_temperature;BMP_pressure;BME280_temperature;BME280_humidity;BME280_pressure;Samples;Min_cycle;Max_cycle;Signal;HPM_P1;HPM_P2
2023/05/28 00:01:38;;;;;;;25.75;7.43;;;;;;;;;;4932226;29;20067;-94
2023/05/28 00:04:35;;;;;;;17.10;6.82;;;;;;;;;;4912947;29;20105;-93
2023/05/28 00:07:25;;;;;;;19.42;6.78;;;;;;;;;;4936270;29;20084;-95
2023/05/28 00:10:28;;;;;;;;;;;;;;;;;;;;;
2023/05/28 00:13:29;;;;;;;13.30;6.93;;;;;;;;;;4934275;29;20052;-93
2023/05/28 00:16:16;;;;;;;26.83;7.53;;;;;;;;;;4938815;29;20076;-94
2023/05/28 00:19:03;;;;;;;21.73;7.18;;;;;;;;;;4921387;29;20039;-95
2023/05/28 00:21:56;;;;;;;24.83;7.75;;;;;;;;;;4912732;29;20035;-92
2023/05/28 00:27:33;;;;;;;19.90;7.28;;;;;;;;;;4991761;23;20115;-93
2023/05/28 00:30:23;;;;;;;23.38;7.30;;;;;;;;;;4937066;29;20099;-93
2023/05/28 00:33:08;;;;;;;23.95;8.43;;;;;;;;;;4938254;29;20059;-95
2023/05/28 00:39:34;;;;;;;24.52;7.85;;;;;;;;;;4866724;29;20151;-92
2023/05/28 00:42:19;;;;;;;22.08;7.47;;;;;;;;;;4883207;29;20056;-93
2023/05/28 00:45:04;;;;;;;25.95;7.53;;;;;;;;;;5058254;23;20122;-93
2023/05/28 00:47:49;;;;;;;21.92;6.78;;;;;;;;;;4933087;29;20043;-94
2023/05/28 00:50:34;;;;;;;25.48;7.53;;;;;;;;;;4922876;29;20066;-93
2023/05/28 00:53:27;;;;;;;20.27;7.88;;;;;;;;;;4919680;29;20055;-95
2023/05/28 00:56:14;;;;;;;34.13;8.10;;;;;;;;;;4933993;29;20039;-93
2023/05/28 00:59:04;;;;;;;21.20;7.50;;;;;;;;;;4922118;29;20047;-94
2023/05/28 01:01:49;;;;;;;23.08;8.48;;;;;;;;;;4926361;29;20108;-94
2023/05/28 01:04:41;;;;;;;22.85;8.07;;;;;;;;;;4919454;29;20047;-94
2023/05/28 01:07:29;;;;;;;21.20;7.15;;;;;;;;;;4914951;29;20043;-94
2023/05/28 01:10:14;;;;;;;20.52;6.55;;;;;;;;;;4912871;29;20043;-95
2023/05/28 01:13:07;;;;;;;21.45;7.05;;;;;;;;;;4925085;29;20172;-94
2023/05/28 01:15:58;;;;;;;20.83;7.70;;;;;;;;;;4915782;29;20051;-93
2023/05/28 01:18:44;;;;;;;24.90;7.55;;;;;;;;;;4906740;29;20069;-94
2023/05/28 01:21:32;;;;;;;21.80;7.88;;;;;;;;;;4907100;29;20096;-94
2023/05/28 01:24:28;;;;;;;19.35;7.47;;;;;;;;;;4908662;29;20060;-92
2023/05/28 01:27:13;;;;;;;22.52;7.32;;;;;;;;;;4913441;29;20055;-94
2023/05/28 01:29:58;;;;;;;21.73;6.90;;;;;;;;;;4904731;29;20088;-95
2023/05/28 01:32:43;;;;;;;20.38;8.35;;;;;;;;;;4921459;29;20047;-93
2023/05/28 01:35:45;;;;;;;23.45;7.00;;;;;;;;;;5125729;23;20074;-95
2023/05/28 01:38:29;;;;;;;24.10;7.90;;;;;;;;;;5116456;23;20051;-94
2023/05/28 01:41:14;;;;;;;18.85;7.95;;;;;;;;;;4939838;29;20119;-95
2023/05/28 01:44:10;;;;;;;;;;;;;;;;;;;;;
2023/05/28 01:46:55;;;;;;;23.42;8.05;;;;;;;;;;4951586;29;20038;-94
2023/05/28 01:49:42;;;;;;;21.13;8.00;;;;;;;;;;4944212;29;20083;-94
2023/05/28 01:52:42;;;;;;;25.75;7.85;;;;;;;;;;4933780;29;20050;-93
2023/05/28 01:55:32;;;;;;;25.88;7.70;;;;;;;;;;4948606;29;20039;-94
2023/05/28 01:58:38;;;;;;;21.88;8.18;;;;;;;;;;4944019;29;20050;-94
2023/05/28 02:01:27;;;;;;;18.52;7.40;;;;;;;;;;4932074;29;20074;-94
2023/05/28 02:04:20;;;;;;;26.02;9.63;;;;;;;;;;4959074;29;20050;-95
2023/05/28 02:07:05;;;;;;;19.80;7.63;;;;;;;;;;4942084;29;20091;-94
2023/05/28 02:09:53;;;;;;;21.25;7.03;;;;;;;;;;4950795;29;20042;-94
2023/05/28 02:12:46;;;;;;;25.20;7.47;;;;;;;;;;4938684;29;20067;-94
2023/05/28 02:15:40;;;;;;;24.30;8.88;;;;;;;;;;4940105;29;20563;-94
2023/05/28 02:18:40;;;;;;;23.75;8.70;;;;;;;;;;4939328;29;20042;-94
2023/05/28 02:21:28;;;;;;;23.10;8.02;;;;;;;;;;4942201;29;20058;-93
2023/05/28 02:24:17;;;;;;;20.67;7.47;;;;;;;;;;4953788;29;20042;-96
2023/05/28 02:27:15;;;;;;;22.65;8.00;;;;;;;;;;4961315;29;20529;-93
2023/05/28 02:30:00;;;;;;;22.25;8.13;;;;;;;;;;4916993;29;20075;-92
2023/05/28 02:32:45;;;;;;;22.20;7.75;;;;;;;;;;4943675;29;20050;-92
2023/05/28 02:35:32;;;;;;;24.92;7.93;;;;;;;;;;4945768;29;20043;-94
2023/05/28 02:38:19;;;;;;;21.02;8.02;;;;;;;;;;4937113;29;20059;-95
2023/05/28 02:41:04;;;;;;;18.98;7.88;;;;;;;;;;4937559;29;20495;-94
2023/05/28 02:43:49;;;;;;;23.08;7.47;;;;;;;;;;4939559;29;20039;-96
2023/05/28 02:46:34;;;;;;;24.55;8.23;;;;;;;;;;4936795;29;20058;-95
2023/05/28 02:49:21;;;;;;;22.33;7.25;;;;;;;;;;4949946;29;20039;-94
2023/05/28 02:52:21;;;;;;;27.92;7.20;;;;;;;;;;4957016;29;20082;-96
2023/05/28 02:55:07;;;;;;;17.67;6.60;;;;;;;;;;4956239;29;20039;-92
2023/05/28 02:57:52;;;;;;;23.63;6.95;;;;;;;;;;4953597;29;20043;-95
2023/05/28 03:00:45;;;;;;;24.00;7.13;;;;;;;;;;4954505;29;20397;-94
2023/05/28 03:03:33;;;;;;;22.67;7.55;;;;;;;;;;4951011;29;20043;-95
2023/05/28 03:06:20;;;;;;;21.38;7.03;;;;;;;;;;4940047;29;20052;-94
2023/05/28 03:09:07;;;;;;;21.77;7.72;;;;;;;;;;4958566;29;20030;-94
2023/05/28 03:12:21;;;;;;;24.52;6.95;;;;;;;;;;4960671;29;20071;-94
2023/05/28 03:15:07;;;;;;;17.08;6.72;;;;;;;;;;4961076;28;20067;-93
2023/05/28 03:18:10;;;;;;;21.67;6.93;;;;;;;;;;4940084;29;20138;-93
2023/05/28 03:21:00;;;;;;;21.45;7.10;;;;;;;;;;4953943;29;20043;-94
2023/05/28 03:23:53;;;;;;;21.23;8.18;;;;;;;;;;4940952;29;20042;-95
2023/05/28 03:26:40;;;;;;;23.45;7.75;;;;;;;;;;4939328;29;20070;-95
2023/05/28 03:29:25;;;;;;;22.23;8.73;;;;;;;;;;4935057;29;20034;-94
2023/05/28 03:32:12;;;;;;;17.92;7.35;;;;;;;;;;4935448;29;20039;-94
2023/05/28 03:34:56;;;;;;;20.40;7.05;;;;;;;;;;4936212;29;20046;-94
2023/05/28 03:37:48;;;;;;;31.55;7.93;;;;;;;;;;4946500;29;20058;-95
2023/05/28 03:40:35;;;;;;;24.55;8.05;;;;;;;;;;4924238;29;20055;-94
2023/05/28 03:43:35;;;;;;;;;;;;;;;;;;;;;
2023/05/28 03:46:23;;;;;;;23.10;9.00;;;;;;;;;;4948734;29;20042;-94
2023/05/28 03:52:20;;;;;;;24.15;6.68;;;;;;;;;;4943919;29;20544;-95
2023/05/28 03:55:08;;;;;;;20.58;7.65;;;;;;;;;;4947816;29;20103;-95
2023/05/28 03:58:11;;;;;;;27.98;8.10;;;;;;;;;;4951452;29;20042;-94
2023/05/28 04:01:16;;;;;;;20.60;7.47;;;;;;;;;;4962900;29;20022;-95
2023/05/28 04:04:01;;;;;;;17.40;6.88;;;;;;;;;;4934099;29;20334;-94
2023/05/28 04:06:46;;;;;;;21.77;7.28;;;;;;;;;;4946404;29;20126;-95
2023/05/28 04:09:38;;;;;;;16.73;6.97;;;;;;;;;;4947676;29;20076;-93
2023/05/28 04:12:23;;;;;;;22.33;7.45;;;;;;;;;;4944612;29;20049;-94
2023/05/28 04:15:08;;;;;;;22.83;8.63;;;;;;;;;;4946396;29;20047;-95
2023/05/28 04:18:05;;;;;;;19.42;6.72;;;;;;;;;;4937641;29;20046;-94
2023/05/28 04:20:55;;;;;;;20.67;6.65;;;;;;;;;;4939628;29;20038;-94
2023/05/28 04:23:46;;;;;;;23.95;7.70;;;;;;;;;;4940647;29;20058;-96
2023/05/28 04:26:32;;;;;;;23.15;7.30;;;;;;;;;;4948496;29;20456;-94
2023/05/28 04:29:27;;;;;;;;;;;;;;;;;;;;;
2023/05/28 04:32:22;;;;;;;29.05;6.80;;;;;;;;;;4950959;29;20046;-94
2023/05/28 04:35:23;;;;;;;18.67;7.75;;;;;;;;;;4950609;29;20042;-94
2023/05/28 04:38:08;;;;;;;23.83;7.70;;;;;;;;;;4927206;29;20063;-95
2023/05/28 04:40:54;;;;;;;19.38;7.25;;;;;;;;;;4916378;29;20043;-93
2023/05/28 04:43:44;;;;;;;21.08;6.57;;;;;;;;;;4916190;29;20255;-94
2023/05/28 04:46:30;;;;;;;19.98;6.47;;;;;;;;;;4932392;29;20060;-94
2023/05/28 04:49:29;;;;;;;26.77;7.13;;;;;;;;;;4910004;29;20120;-93
2023/05/28 04:52:26;;;;;;;17.98;7.03;;;;;;;;;;4935637;29;20038;-94
2023/05/28 04:55:12;;;;;;;20.10;6.45;;;;;;;;;;4931246;29;20073;-94
2023/05/28 04:57:56;;;;;;;21.85;6.97;;;;;;;;;;4922350;29;20104;-94
2023/05/28 05:01:14;;;;;;;21.15;7.28;;;;;;;;;;4936926;28;20066;-93
2023/05/28 05:04:01;;;;;;;19.48;6.20;;;;;;;;;;5249200;23;20074;-92
2023/05/28 05:06:49;;;;;;;28.50;6.60;;;;;;;;;;5089078;23;20060;-94
2023/05/28 05:09:40;;;;;;;23.85;6.95;;;;;;;;;;4993984;28;20026;-95
2023/05/28 05:12:25;;;;;;;20.90;7.15;;;;;;;;;;4991549;28;20054;-92
2023/05/28 05:15:19;;;;;;;18.13;7.72;;;;;;;;;;4970564;28;20050;-94
2023/05/28 05:18:08;;;;;;;18.88;6.40;;;;;;;;;;4993384;28;20046;-94
2023/05/28 05:20:55;;;;;;;20.65;6.15;;;;;;;;;;4991560;28;20101;-93
2023/05/28 05:27:02;;;;;;;19.00;6.20;;;;;;;;;;4992937;28;20069;-94
2023/05/28 05:29:58;;;;;;;16.92;6.82;;;;;;;;;;4993797;28;20115;-94
2023/05/28 05:32:54;;;;;;;22.90;6.47;;;;;;;;;;4996080;28;20038;-93
2023/05/28 05:35:41;;;;;;;17.27;6.35;;;;;;;;;;4979082;28;20046;-94
2023/05/28 05:38:33;;;;;;;19.75;7.10;;;;;;;;;;4994949;28;20030;-91
2023/05/28 05:41:28;;;;;;;15.88;5.97;;;;;;;;;;4994161;28;20478;-95
2023/05/28 05:44:13;;;;;;;21.98;5.97;;;;;;;;;;5005553;28;20029;-93
2023/05/28 05:49:46;;;;;;;14.00;5.47;;;;;;;;;;5800284;23;19940;-96
2023/05/28 05:52:33;;;;;;;19.33;6.53;;;;;;;;;;4952297;29;20115;-92
2023/05/28 05:57:59;;;;;;;18.20;5.45;;;;;;;;;;4990712;23;20036;-96
2023/05/28 06:00:49;;;;;;;16.15;6.28;;;;;;;;;;4959613;29;20065;-94
2023/05/28 06:03:44;;;;;;;15.05;5.68;;;;;;;;;;4963985;29;20105;-93
2023/05/28 06:09:10;;;;;;;14.10;5.70;;;;;;;;;;5676228;23;20035;-94
2023/05/28 06:11:58;;;;;;;14.82;5.65;;;;;;;;;;4958181;29;20063;-95
2023/05/28 06:14:46;;;;;;;16.73;5.63;;;;;;;;;;4985103;28;20049;-94
2023/05/28 06:17:41;;;;;;;12.77;5.07;;;;;;;;;;4958021;29;20042;-94
2023/05/28 06:23:37;;;;;;;19.20;4.63;;;;;;;;;;4982420;28;20103;-95
2023/05/28 06:26:24;;;;;;;11.90;4.22;;;;;;;;;;4957788;29;20081;-94
2023/05/28 06:29:12;;;;;;;16.55;4.32;;;;;;;;;;4954881;29;20045;-94
2023/05/28 06:32:13;;;;;;;;;;;;;;;;;;;;;
2023/05/28 06:38:31;;;;;;;14.27;4.85;;;;;;;;;;4979758;28;20121;-95
2023/05/28 06:41:42;;;;;;;11.43;4.60;;;;;;;;;;4976514;28;20045;-94
2023/05/28 06:44:27;;;;;;;10.45;4.65;;;;;;;;;;4980894;28;20026;-94
2023/05/28 06:47:17;;;;;;;11.43;4.45;;;;;;;;;;4994731;28;20025;-93
2023/05/28 06:50:09;;;;;;;10.25;4.22;;;;;;;;;;5017170;23;20072;-95
2023/05/28 06:53:12;;;;;;;15.98;4.70;;;;;;;;;;4949755;28;20027;-95
2023/05/28 06:58:48;;;;;;;11.85;4.50;;;;;;;;;;5109788;23;20063;-92
2023/05/28 07:01:40;;;;;;;;;;;;;;;;;;4940824;29;20064;-94
2023/05/28 07:04:28;;;;;;;13.18;4.93;;;;;;;;;;4955428;29;19922;-95
2023/05/28 07:07:16;;;;;;;9.18;4.78;;;;;;;;;;4939626;29;20051;-94
2023/05/28 07:10:01;;;;;;;13.38;5.03;;;;;;;;;;4936445;29;20038;-94
2023/05/28 07:12:48;;;;;;;10.20;4.68;;;;;;;;;;4906579;29;20051;-94
2023/05/28 07:15:38;;;;;;;16.60;5.20;;;;;;;;;;4938423;29;20019;-93
2023/05/28 07:18:23;;;;;;;10.68;5.30;;;;;;;;;;4934562;29;20038;-94
2023/05/28 07:21:17;;;;;;;12.45;5.22;;;;;;;;;;4938552;29;20425;-93
2023/05/28 07:24:08;;;;;;;10.55;5.05;;;;;;;;;;4915813;29;20054;-95
2023/05/28 07:26:53;;;;;;;8.95;4.75;;;;;;;;;;4947786;29;20083;-95
2023/05/28 07:29:43;;;;;;;10.00;4.68;;;;;;;;;;4949421;29;20068;-95
2023/05/28 07:32:28;;;;;;;11.13;4.53;;;;;;;;;;4933901;29;20419;-95
2023/05/28 07:35:13;;;;;;;13.88;5.45;;;;;;;;;;4915070;29;20071;-94
2023/05/28 07:38:02;;;;;;;11.20;4.63;;;;;;;;;;4914695;29;20039;-94
2023/05/28 07:40:59;;;;;;;9.50;4.05;;;;;;;;;;4926699;29;20047;-94
2023/05/28 07:43:48;;;;;;;11.00;4.60;;;;;;;;;;4947593;29;20046;-94
2023/05/28 07:46:33;;;;;;;10.02;4.55;;;;;;;;;;4910746;29;20047;-95
2023/05/28 07:49:25;;;;;;;11.05;5.65;;;;;;;;;;4943525;29;20080;-93
2023/05/28 07:52:11;;;;;;;8.57;4.78;;;;;;;;;;4941002;29;20039;-94
2023/05/28 07:54:58;;;;;;;8.07;3.90;;;;;;;;;;4925996;29;20047;-94
2023/05/28 07:57:43;;;;;;;9.18;3.97;;;;;;;;;;4906378;29;20134;-92
2023/05/28 08:00:27;;;;;;;11.25;4.35;;;;;;;;;;4915831;29;20059;-94
2023/05/28 08:03:12;;;;;;;14.63;4.40;;;;;;;;;;4941479;29;20078;-94
2023/05/28 08:05:57;;;;;;;10.25;4.15;;;;;;;;;;4925129;29;20059;-95
2023/05/28 08:08:41;;;;;;;9.82;4.63;;;;;;;;;;4925050;29;20062;-95
2023/05/28 08:11:26;;;;;;;11.98;4.45;;;;;;;;;;4910262;29;20050;-95
2023/05/28 08:14:10;;;;;;;10.88;4.38;;;;;;;;;;4926190;29;20055;-93
2023/05/28 08:16:55;;;;;;;14.25;4.20;;;;;;;;;;4898118;29;20098;-95
2023/05/28 08:19:40;;;;;;;11.00;4.60;;;;;;;;;;4910258;29;20083;-95
2023/05/28 08:22:24;;;;;;;10.68;4.30;;;;;;;;;;4909515;29;20063;-94
2023/05/28 08:25:09;;;;;;;13.57;4.63;;;;;;;;;;4922808;29;20074;-94
2023/05/28 08:27:53;;;;;;;10.85;4.72;;;;;;;;;;4922983;29;20054;-93
2023/05/28 08:30:40;;;;;;;9.25;4.15;;;;;;;;;;4909210;29;20038;-94
2023/05/28 08:33:25;;;;;;;8.85;3.65;;;;;;;;;;4934404;29;20162;-94
2023/05/28 08:36:11;;;;;;;8.98;4.00;;;;;;;;;;4885502;29;20047;-92
2023/05/28 08:38:56;;;;;;;6.47;3.63;;;;;;;;;;4908450;29;20071;-92
2023/05/28 08:41:40;;;;;;;8.48;4.22;;;;;;;;;;4936638;29;20102;-93
2023/05/28 08:44:25;;;;;;;8.63;4.28;;;;;;;;;;4909641;29;20061;-94
2023/05/28 08:47:10;;;;;;;10.10;4.78;;;;;;;;;;4922176;29;20038;-93
2023/05/28 08:49:55;;;;;;;7.72;4.28;;;;;;;;;;4922021;29;20123;-94
2023/05/28 08:52:41;;;;;;;9.63;4.40;;;20.50;72.20;;;;;;4907564;29;20045;-91
2023/05/28 08:55:26;;;;;;;12.57;4.80;;;;;;;;;;4915727;29;20056;-94
2023/05/28 08:58:11;;;;;;;9.68;4.00;;;;;;;;;;4864003;29;20087;-93
2023/05/28 09:00:55;;;;;;;8.55;4.13;;;;;;;;;;4870737;29;20047;-92
2023/05/28 09:03:40;;;;;;;9.63;4.68;;;;;;;;;;4884359;29;20051;-96
2023/05/28 09:06:25;;;;;;;8.48;4.38;;;;;;;;;;4911894;29;20089;-93
2023/05/28 09:09:11;;;;;;;9.35;4.53;;;;;;;;;;4883092;29;20043;-94
2023/05/28 09:12:06;;;;;;;6.88;4.50;;;;;;;;;;4883625;29;20343;-93
2023/05/28 09:14:52;;;;;;;8.27;4.60;;;;;;;;;;4897817;29;20036;-93
2023/05/28 09:17:40;;;;;;;9.80;4.50;;;;;;;;;;4883937;29;20061;-95
2023/05/28 09:20:25;;;;;;;10.80;4.78;;;;;;;;;;4897726;29;20088;-94
2023/05/28 09:23:10;;;;;;;10.40;4.38;;;;;;;;;;4896683;29;20083;-95
2023/05/28 09:26:00;;;;;;;10.15;4.88;;;;;;;;;;4861055;29;20056;-93
2023/05/28 09:28:45;;;;;;;10.25;6.05;;;;;;;;;;4909504;29;20040;-94
2023/05/28 09:31:32;;;;;;;10.60;5.03;;;;;;;;;;4897318;29;20132;-94
2023/05/28 09:34:18;;;;;;;7.68;5.03;;;;;;;;;;4883107;29;20402;-92
2023/05/28 09:37:06;;;;;;;13.20;5.32;;;;;;;;;;4897724;29;20092;-95
2023/05/28 09:40:00;;;;;;;8.40;4.85;;;;;;;;;;4883574;29;20047;-92
2023/05/28 09:42:44;;;;;;;;;;;22.20;58.90;;;;;;4883314;29;20553;-91
2023/05/28 09:45:28;;;;;;;;;;;22.10;55.80;;;;;;4878553;29;19926;-92
2023/05/28 09:48:13;;;;;;;7.15;4.43;;;;;;;;;;4867313;29;19967;-93
2023/05/28 09:50:59;;;;;;;12.20;5.63;;;;;;;;;;4893425;29;20064;-93
2023/05/28 09:53:44;;;;;;;8.25;5.28;;;;;;;;;;4897066;29;20052;-94
2023/05/28 09:56:33;;;;;;;9.48;5.68;;;;;;;;;;4871321;29;20124;-93
2023/05/28 09:59:18;;;;;;;8.43;5.55;;;;;;;;;;4915665;29;20511;-95
2023/05/28 10:02:14;;;;;;;12.43;6.43;;;;;;;;;;4910053;29;20120;-94
2023/05/28 10:05:02;;;;;;;9.65;5.05;;;;;;;;;;4903792;29;20088;-93
2023/05/28 10:07:50;;;;;;;8.85;5.38;;;;;;;;;;4911000;29;20545;-94
2023/05/28 10:10:35;;;;;;;9.02;5.53;;;;;;;;;;4914963;29;20048;-93
2023/05/28 10:13:20;;;;;;;8.45;5.35;;;;;;;;;;4914080;29;20047;-94
2023/05/28 10:16:05;;;;;;;9.68;5.15;;;;;;;;;;4914395;29;20087;-93
2023/05/28 10:18:50;;;;;;;9.07;5.22;;;;;;;;;;4901694;29;20123;-93
2023/05/28 10:21:35;;;;;;;10.10;5.60;;;;;;;;;;4918965;29;20055;-94
2023/05/28 10:24:20;;;;;;;10.77;5.97;;;;;;;;;;4904789;29;20055;-93
2023/05/28 10:27:08;;;;;;;9.35;4.93;;;;;;;;;;4905229;29;20051;-92
2023/05/28 10:29:53;;;;;;;11.98;6.57;;;;;;;;;;4918123;29;20047;-93
2023/05/28 10:32:41;;;;;;;9.75;6.20;;;;;;;;;;4919176;29;20047;-93
2023/05/28 10:35:26;;;;;;;11.15;5.28;;;;;;;;;;4908204;29;20042;-92
2023/05/28 10:38:11;;;;;;;8.57;5.03;;;;;;;;;;4902243;29;20070;-91
2023/05/28 10:41:02;;;;;;;9.30;5.55;;;;;;;;;;4912979;29;20046;-92
2023/05/28 10:43:48;;;;;;;9.20;5.97;;;;;;;;;;4906474;29;20051;-94
2023/05/28 10:46:36;;;;;;;10.38;5.22;;;;;;;;;;4910706;29;20446;-93
2023/05/28 10:49:20;;;;;;;10.50;5.72;;;;;;;;;;4918053;29;20059;-93
2023/05/28 10:52:05;;;;;;;10.25;5.40;;;;;;;;;;4902762;29;20125;-94
2023/05/28 10:54:54;;;;;;;8.48;5.28;;;;;;;;;;4911982;29;20099;-92
2023/05/28 10:57:46;;;;;;;9.77;5.60;;;;;;;;;;4912602;29;20137;-93
2023/05/28 11:00:30;;;;;;;9.40;5.80;;;;;;;;;;4917628;29;20226;-92
2023/05/28 11:03:15;;;;;;;11.32;6.80;;;;;;;;;;4917941;29;20444;-92
2023/05/28 11:06:03;;;;;;;11.05;5.97;;;;;;;;;;4903983;29;20050;-94
2023/05/28 11:08:48;;;;;;;10.63;5.93;;;;;;;;;;4903594;29;20456;-93
2023/05/28 11:11:33;;;;;;;10.32;6.15;;;;;;;;;;4917494;29;20171;-91
2023/05/28 11:14:17;;;;;;;8.50;5.18;;;;;;;;;;4888266;29;20409;-91
2023/05/28 11:17:05;;;;;;;10.35;5.88;;;;;;;;;;4906767;29;20453;-92
2023/05/28 11:19:51;;;;;;;8.70;5.75;;;;;;;;;;4917843;29;20039;-94
2023/05/28 11:22:36;;;;;;;9.10;5.50;;;;;;;;;;4903450;29;20171;-93
2023/05/28 11:25:27;;;;;;;9.32;4.93;;;;;;;;;;4914781;29;20103;-93
2023/05/28 11:28:12;;;;;;;12.13;5.05;;;;;;;;;;4903288;29;20039;-91
2023/05/28 11:30:57;;;;;;;7.10;4.57;;;;;;;;;;4909840;29;20722;-93
2023/05/28 11:33:42;;;;;;;7.63;4.30;;;;;;;;;;4902979;29;20441;-94
2023/05/28 11:36:26;;;;;;;8.05;4.90;;;;;;;;;;4917479;29;20194;-93
2023/05/28 11:39:12;;;;;;;6.85;3.85;;;;;;;;;;4909800;29;20054;-93
2023/05/28 11:41:57;;;;;;;6.90;3.33;;;;;;;;;;4916515;29;20135;-94
2023/05/28 11:44:48;;;;;;;6.38;3.55;;;;;;;;;;4925155;29;20075;-95
2023/05/28 11:47:33;;;;;;;6.72;3.33;;;;;;;;;;4926393;29;20141;-93
2023/05/28 11:50:18;;;;;;;7.78;3.28;;;;;;;;;;4940246;29;20039;-94
2023/05/28 11:53:03;;;;;;;6.25;2.80;;;;;;;;;;4903128;29;20051;-94
2023/05/28 11:55:47;;;;;;;6.82;3.72;;;;;;;;;;4923359;29;20046;-94
2023/05/28 11:58:33;;;;;;;8.70;3.38;;;;;;;;;;4912129;29;20059;-93
2023/05/28 12:01:17;;;;;;;8.02;2.55;;;;;;;;;;4909980;29;20067;-92
2023/05/28 12:04:06;;;;;;;6.15;2.65;;;;;;;;;;4914192;29;20064;-93
2023/05/28 12:06:51;;;;;;;6.32;2.75;;;;;;;;;;4917946;29;20083;-93
2023/05/28 12:09:36;;;;;;;6.00;2.50;;;;;;;;;;4916489;29;20039;-93
2023/05/28 12:12:27;;;;;;;8.75;2.42;;;;;;;;;;4902685;29;20553;-95
2023/05/28 12:15:12;;;;;;;5.53;2.60;;;;;;;;;;4903004;29;20042;-93
2023/05/28 12:17:58;;;;;;;6.90;2.50;;;;;;;;;;4918850;29;20123;-94
2023/05/28 12:20:47;;;;;;;7.57;2.78;;;;;;;;;;4906409;29;20119;-94
2023/05/28 12:23:32;;;;;;;9.93;3.00;;;;;;;;;;4918140;29;20043;-93
2023/05/28 12:26:17;;;;;;;7.63;2.65;;;;;;;;;;4917492;29;20079;-94
2023/05/28 12:29:01;;;;;;;6.85;2.88;;;;;;;;;;4903892;29;20042;-94
2023/05/28 12:31:46;;;;;;;7.88;3.15;;;;;;;;;;4904956;29;20083;-94
2023/05/28 12:34:30;;;;;;;7.38;2.42;;;;;;;;;;4926897;29;20043;-94
2023/05/28 12:37:15;;;;;;;8.65;3.03;;;;;;;;;;4908050;29;20136;-95
2023/05/28 12:40:00;;;;;;;7.60;3.20;;;;;;;;;;4903231;29;20039;-94
2023/05/28 12:42:44;;;;;;;8.68;2.97;;;;;;;;;;4920960;29;20102;-94
2023/05/28 12:45:29;;;;;;;8.15;2.92;;;;;;;;;;4921594;29;20043;-93
2023/05/28 12:48:15;;;;;;;11.45;3.10;;;;;;;;;;4921524;29;20042;-95
2023/05/28 12:51:00;;;;;;;9.77;3.28;;;;;;;;;;4935710;29;20055;-93
2023/05/28 12:53:48;;;;;;;9.05;2.75;;;;;;;;;;4921607;29;20094;-95
2023/05/28 12:56:32;;;;;;;8.38;3.00;;;;;;;;;;4910719;29;20115;-93
2023/05/28 12:59:21;;;;;;;10.77;2.92;;;;;;;;;;4918941;29;20063;-93
2023/05/28 13:02:05;;;;;;;9.65;3.05;;;;;;;;;;4904395;29;20047;-94
2023/05/28 13:04:53;;;;;;;9.70;3.47;;;;;;;;;;4905307;29;20096;-96
2023/05/28 13:07:43;;;;;;;8.88;3.08;;;;;;;;;;4906363;29;20047;-93
2023/05/28 13:10:31;;;;;;;11.05;3.17;;;;;;;;;;4896462;29;20055;-95
2023/05/28 13:13:18;;;;;;;11.75;2.92;;;;;;;;;;4904242;29;20099;-94
2023/05/28 13:16:03;;;;;;;10.10;3.33;;;;;;;;;;4916741;29;20047;-93
2023/05/28 13:18:48;;;;;;;22.70;3.58;;;;;;;;;;4916038;29;20052;-91
2023/05/28 13:21:35;;;;;;;11.43;3.40;;;;;;;;;;4902202;29;20086;-95
2023/05/28 13:24:34;;;;;;;8.15;3.17;;;;;;;;;;4904915;29;20071;-94
2023/05/28 13:27:19;;;;;;;9.68;2.60;;;;;;;;;;4918518;29;20163;-93
2023/05/28 13:30:08;;;;;;;11.48;3.33;;;;;;;;;;4890173;29;20094;-94
2023/05/28 13:32:52;;;;;;;10.65;2.72;;;;;;;;;;4916773;29;20063;-94
2023/05/28 13:35:37;;;;;;;7.57;2.97;;;;;;;;;;4900257;29;20046;-94
2023/05/28 13:38:24;;;;;;;9.55;2.83;;;;;;;;;;4894934;29;20051;-92
2023/05/28 13:41:10;;;;;;;8.70;2.60;;;;;;;;;;4910030;29;20039;-95
2023/05/28 13:43:55;;;;;;;11.32;3.10;;;;;;;;;;4912697;29;20083;-94
2023/05/28 13:46:52;;;;;;;10.02;3.88;;;;;;;;;;4920490;29;20151;-94
2023/05/28 13:49:41;;;;;;;6.82;2.40;;;;;;;;;;4931457;29;20092;-94
2023/05/28 13:52:37;;;;;;;6.97;2.70;;;;;;;;;;4911913;29;20055;-94
2023/05/28 13:55:24;;;;;;;11.10;3.35;;;;;;;;;;4907128;29;20047;-92
2023/05/28 13:58:09;;;;;;;6.97;2.47;;;;;;;;;;4904936;29;20168;-93
2023/05/28 14:00:53;;;;;;;9.13;2.85;;;;;;;;;;4939125;29;20512;-94
2023/05/28 14:03:38;;;;;;;9.15;3.20;;;;;;;;;;4911000;29;20050;-94
2023/05/28 14:06:22;;;;;;;6.75;2.33;;;;;;;;;;4940717;29;20114;-93
2023/05/28 14:09:10;;;;;;;7.55;2.65;;;;;;;;;;4926505;29;20106;-93
2023/05/28 14:11:55;;;;;;;12.32;3.20;;;;;;;;;;4912517;29;20458;-94
2023/05/28 14:14:40;;;;;;;8.75;3.13;;;;;;;;;;4924186;29;20095;-92
2023/05/28 14:17:24;;;;;;;9.05;3.03;;;;;;;;;;4916781;29;20047;-93
2023/05/28 14:20:10;;;;;;;6.22;2.47;;;;;;;;;;4941844;29;20436;-94
2023/05/28 14:22:55;;;;;;;11.38;3.78;;;;;;;;;;4916472;29;20104;-94
2023/05/28 14:25:39;;;;;;;9.75;3.30;;;;;;;;;;4922134;29;20054;-93
2023/05/28 14:28:26;;;;;;;14.45;3.53;;;;;;;;;;4912720;29;20051;-93
2023/05/28 14:31:10;;;;;;;9.50;3.22;;;;;;;;;;4926880;29;20071;-94
2023/05/28 14:33:55;;;;;;;11.52;3.53;;;;;;;;;;4897220;29;20047;-91
2023/05/28 14:36:45;;;;;;;10.82;3.00;;;;;;;;;;4913358;29;20047;-93
2023/05/28 14:39:33;;;;;;;12.57;3.17;;;;;;;;;;4888587;29;20098;-93
2023/05/28 14:42:17;;;;;;;10.13;2.92;;;;;;;;;;4908225;29;20480;-93
2023/05/28 14:45:02;;;;;;;10.30;2.97;;;;;;;;;;4919607;29;20119;-94
2023/05/28 14:47:49;;;;;;;12.07;3.38;;;;;;;;;;4905199;29;20484;-94
2023/05/28 14:50:37;;;;;;;8.05;2.80;;;;;;;;;;4910024;29;20043;-92
2023/05/28 14:53:33;;;;;;;9.13;3.10;;;;;;;;;;4896690;29;20068;-95
2023/05/28 14:56:18;;;;;;;12.25;2.67;;;;;;;;;;4906964;29;20051;-95
2023/05/28 14:59:11;;;;;;;11.25;2.90;;;;;;;;;;4916772;29;20131;-95
2023/05/28 15:01:58;;;;;;;9.57;3.03;;;;;;;;;;4924608;29;20095;-94
2023/05/28 15:04:55;;;;;;;9.93;3.10;;;;;;;;;;4902396;29;20039;-95
2023/05/28 15:07:58;;;;;;;11.82;3.78;;;;;;;;;;4895921;29;20048;-95
2023/05/28 15:10:48;;;;;;;16.52;3.22;;;;;;;;;;4906403;29;20046;-94
2023/05/28 15:13:33;;;;;;;7.28;2.53;;;;;;;;;;4920247;29;20043;-94
2023/05/28 15:16:20;;;;;;;9.63;2.55;;;;;;;;;;4925574;29;20047;-94
2023/05/28 15:19:11;;;;;;;10.00;3.25;;;;;;;;;;4911646;29;20052;-96
2023/05/28 15:21:58;;;;;;;9.65;3.25;;;;;;;;;;4910548;29;20047;-94
2023/05/28 15:24:45;;;;;;;11.80;3.20;;;;;;;;;;4921576;29;20046;-90
2023/05/28 15:27:32;;;;;;;11.85;2.83;;;;;;;;;;4894021;29;20047;-94
2023/05/28 15:30:19;;;;;;;8.02;3.10;;;;;;;;;;4911320;29;20248;-95
2023/05/28 15:33:11;;;;;;;9.82;3.30;;;;;;;;;;4932499;29;20050;-94
2023/05/28 15:36:06;;;;;;;12.98;3.20;;;;;;;;;;4956763;29;20050;-94
2023/05/28 15:38:54;;;;;;;7.70;2.75;;;;;;;;;;4927460;29;20035;-95
2023/05/28 15:41:41;;;;;;;9.20;3.00;;;;;;;;;;4888600;29;20522;-94
2023/05/28 15:44:26;;;;;;;7.07;2.72;;;;;;;;;;4921391;29;20196;-94
2023/05/28 15:47:13;;;;;;;8.88;3.22;;;;;;;;;;4909515;29;20047;-94
2023/05/28 15:49:58;;;;;;;9.75;3.20;;;;;;;;;;4891892;29;20050;-93
2023/05/28 15:52:42;;;;;;;9.43;3.10;;;;;;;;;;4926209;29;20127;-95
2023/05/28 15:55:29;;;;;;;14.20;3.40;;;;;;;;;;4925823;29;20034;-94
2023/05/28 15:58:25;;;;;;;11.27;3.85;;;;;;;;;;4912258;29;20084;-94
2023/05/28 16:01:15;;;;;;;18.15;5.90;;;;;;;;;;5140891;23;20104;-93
2023/05/28 16:04:03;;;;;;;11.48;3.90;;;;;;;;;;5052973;23;20151;-95
2023/05/28 16:06:58;;;;;;;;;;;;;;;;;;;;;
2023/05/28 16:09:43;;;;;;;11.07;3.45;;;;;;;;;;4933406;29;20034;-93
2023/05/28 16:12:28;;;;;;;10.57;3.25;;;;;;;;;;4912910;29;20058;-94
2023/05/28 16:15:24;;;;;;;9.18;3.85;;;;;;;;;;4912835;29;20064;-92
2023/05/28 16:18:15;;;;;;;12.70;4.18;;;;;;;;;;4922702;29;20056;-94
2023/05/28 16:21:14;;;;;;;15.07;4.85;;;;;;;;;;4920055;29;20042;-94
2023/05/28 16:24:07;;;;;;;10.80;4.50;;;;;;;;;;4922312;29;20048;-93
2023/05/28 16:27:05;;;;;;;10.95;4.20;;;;;;;;;;4919400;29;20087;-92
2023/05/28 16:29:58;;;;;;;14.65;4.45;;;;;;;;;;4912292;29;20143;-94
2023/05/28 16:33:01;;;;;;;12.68;5.20;;;;;;;;;;4904701;29;20046;-94
2023/05/28 16:35:46;;;;;;;19.35;5.95;;;;;;;;;;4900710;29;20119;-94
2023/05/28 16:38:31;;;;;;;13.13;4.97;;;;;;;;;;4900278;29;20035;-93
2023/05/28 16:41:18;;;;;;;10.80;5.03;;;;;;;;;;4912053;29;20042;-94
2023/05/28 16:44:07;;;;;;;10.82;5.07;;;;;;;;;;4913671;29;20717;-93
2023/05/28 16:46:54;;;;;;;8.18;4.25;;;;;;;;;;4915632;29;20126;-94
2023/05/28 16:49:39;;;;;;;16.58;5.32;;;;;;;;;;4916571;29;20416;-94
2023/05/28 16:52:29;;;;;;;10.98;5.20;;;;;;;;;;4913232;29;20066;-94
2023/05/28 16:55:16;;;;;;;12.98;4.95;;;;;;;;;;4908331;29;20072;-95
2023/05/28 16:58:03;;;;;;;14.25;5.55;;;;;;;;;;4904198;29;20123;-94
2023/05/28 17:00:48;;;;;;;11.50;5.20;;;;;;;;;;4914763;29;20039;-94
2023/05/28 17:03:35;;;;;;;11.27;5.50;;;;;;;;;;4903397;29;20107;-94
2023/05/28 17:06:23;;;;;;;10.32;4.60;;;;;;;;;;4903069;29;20056;-94
2023/05/28 17:09:15;;;;;;;11.48;4.60;;;;;;;;;;4918555;29;20170;-94
2023/05/28 17:12:00;;;;;;;14.55;5.15;;;;;;;;;;4885843;29;20160;-94
2023/05/28 17:14:45;;;;;;;13.20;5.28;;;;;;;;;;4906258;29;20043;-93
2023/05/28 17:17:36;;;;;;;12.10;5.53;;;;;;;;;;4925766;29;20052;-92